sensor_id;sensor_type;location;lat;lon;timestamp;pressure;altitude;pressure_sealevel;temperature;humidity
49461;BME280;35355;49.198;-0.368;2023-09-07T00:01:05;101093.63;;;21.75;74.99
49461;BME280;35355;49.198;-0.368;2023-09-07T00:03:31;101096.91;;;21.68;75.09
49461;BME280;35355;49.198;-0.368;2023-09-07T00:05:57;101099.19;;;21.66;74.92
49461;BME280;35355;49.198;-0.368;2023-09-07T00:08:22;101098.38;;;21.66;75.00
49461;BME280;35355;49.198;-0.368;2023-09-07T00:10:48;101099.03;;;21.63;75.14
49461;BME280;35355;49.198;-0.368;2023-09-07T00:13:14;101089.22;;;21.57;75.09
49461;BME280;35355;49.198;-0.368;2023-09-07T00:15:39;101079.09;;;21.52;75.60
49461;BME280;35355;49.198;-0.368;2023-09-07T00:18:05;101081.88;;;21.61;75.93
49461;BME280;35355;49.198;-0.368;2023-09-07T00:22:59;101072.41;;;21.62;76.18
49461;BME280;35355;49.198;-0.368;2023-09-07T00:25:26;101076.63;;;21.68;76.20
49461;BME280;35355;49.198;-0.368;2023-09-07T00:27:51;101082.00;;;21.73;76.12
49461;BME280;35355;49.198;-0.368;2023-09-07T00:30:17;101087.56;;;21.73;75.69
49461;BME280;35355;49.198;-0.368;2023-09-07T00:32:42;101076.16;;;21.66;75.28
49461;BME280;35355;49.198;-0.368;2023-09-07T00:35:08;101085.31;;;21.66;75.05
49461;BME280;35355;49.198;-0.368;2023-09-07T00:37:33;101086.97;;;21.59;75.01
49461;BME280;35355;49.198;-0.368;2023-09-07T00:39:59;101081.06;;;21.51;75.57
49461;BME280;35355;49.198;-0.368;2023-09-07T00:42:25;101084.16;;;21.50;75.82
49461;BME280;35355;49.198;-0.368;2023-09-07T00:44:50;101081.19;;;21.46;75.73
49461;BME280;35355;49.198;-0.368;2023-09-07T00:47:16;101083.16;;;21.46;75.83
49461;BME280;35355;49.198;-0.368;2023-09-07T00:49:42;101087.41;;;21.43;75.51
49461;BME280;35355;49.198;-0.368;2023-09-07T00:52:08;101081.69;;;21.40;75.88
49461;BME280;35355;49.198;-0.368;2023-09-07T00:54:35;101076.31;;;21.34;75.99
49461;BME280;35355;49.198;-0.368;2023-09-07T00:57:04;101080.25;;;21.33;75.68
49461;BME280;35355;49.198;-0.368;2023-09-07T00:59:32;101080.25;;;21.33;76.33
49461;BME280;35355;49.198;-0.368;2023-09-07T01:01:58;101066.69;;;21.32;76.13
49461;BME280;35355;49.198;-0.368;2023-09-07T01:04:23;101069.28;;;21.37;76.17
49461;BME280;35355;49.198;-0.368;2023-09-07T01:07:22;101057.38;;;21.36;75.66
49461;BME280;35355;49.198;-0.368;2023-09-07T01:09:52;101059.97;;;21.42;76.59
49461;BME280;35355;49.198;-0.368;2023-09-07T01:12:18;101058.50;;;21.44;76.88
49461;BME280;35355;49.198;-0.368;2023-09-07T01:14:43;101047.53;;;21.48;76.83
49461;BME280;35355;49.198;-0.368;2023-09-07T01:17:09;101050.81;;;21.50;76.30
49461;BME280;35355;49.198;-0.368;2023-09-07T01:19:37;101059.50;;;21.48;76.53
49461;BME280;35355;49.198;-0.368;2023-09-07T01:22:03;101052.16;;;21.44;76.34
49461;BME280;35355;49.198;-0.368;2023-09-07T01:24:30;101055.53;;;21.41;76.04
49461;BME280;35355;49.198;-0.368;2023-09-07T01:27:01;101038.09;;;21.31;75.97
49461;BME280;35355;49.198;-0.368;2023-09-07T01:29:26;101047.56;;;21.30;76.23
49461;BME280;35355;49.198;-0.368;2023-09-07T01:31:54;101052.16;;;21.26;76.10
49461;BME280;35355;49.198;-0.368;2023-09-07T01:34:20;101050.34;;;21.22;75.79
49461;BME280;35355;49.198;-0.368;2023-09-07T01:36:46;101050.84;;;21.15;75.86
49461;BME280;35355;49.198;-0.368;2023-09-07T01:39:11;101050.03;;;21.14;76.08
49461;BME280;35355;49.198;-0.368;2023-09-07T01:41:37;101043.63;;;21.14;76.66
49461;BME280;35355;49.198;-0.368;2023-09-07T01:44:03;101033.50;;;21.09;77.11
49461;BME280;35355;49.198;-0.368;2023-09-07T01:46:28;101040.72;;;21.19;77.16
49461;BME280;35355;49.198;-0.368;2023-09-07T01:48:54;101035.16;;;21.19;76.63
49461;BME280;35355;49.198;-0.368;2023-09-07T01:51:20;101038.91;;;21.14;76.61
49461;BME280;35355;49.198;-0.368;2023-09-07T01:53:48;101034.03;;;21.11;76.20
49461;BME280;35355;49.198;-0.368;2023-09-07T01:56:18;101034.69;;;21.08;76.47
49461;BME280;35355;49.198;-0.368;2023-09-07T01:58:43;101037.13;;;21.10;76.14
49461;BME280;35355;49.198;-0.368;2023-09-07T02:01:23;101030.91;;;21.04;75.48
49461;BME280;35355;49.198;-0.368;2023-09-07T02:03:49;101031.38;;;20.97;75.87
49461;BME280;35355;49.198;-0.368;2023-09-07T02:06:15;101031.25;;;20.94;76.09
49461;BME280;35355;49.198;-0.368;2023-09-07T02:08:40;101025.03;;;20.88;75.92
49461;BME280;35355;49.198;-0.368;2023-09-07T02:11:06;101034.31;;;20.83;75.63
49461;BME280;35355;49.198;-0.368;2023-09-07T02:13:32;101030.88;;;20.78;75.71
49461;BME280;35355;49.198;-0.368;2023-09-07T02:15:57;101026.63;;;20.72;75.98
49461;BME280;35355;49.198;-0.368;2023-09-07T02:18:23;101035.28;;;20.70;76.20
49461;BME280;35355;49.198;-0.368;2023-09-07T02:20:48;101024.19;;;20.70;76.51
49461;BME280;35355;49.198;-0.368;2023-09-07T02:23:14;101028.09;;;20.69;76.64
49461;BME280;35355;49.198;-0.368;2023-09-07T02:25:40;101026.31;;;20.73;76.97
49461;BME280;35355;49.198;-0.368;2023-09-07T02:28:06;101028.44;;;20.76;77.35
49461;BME280;35355;49.198;-0.368;2023-09-07T02:30:32;101014.41;;;20.81;77.28
49461;BME280;35355;49.198;-0.368;2023-09-07T02:32:58;101018.50;;;20.84;76.92
49461;BME280;35355;49.198;-0.368;2023-09-07T02:35:23;101018.81;;;20.82;76.72
49461;BME280;35355;49.198;-0.368;2023-09-07T02:37:49;101027.78;;;20.79;76.75
49461;BME280;35355;49.198;-0.368;2023-09-07T02:40:14;101026.78;;;20.75;76.28
49461;BME280;35355;49.198;-0.368;2023-09-07T02:42:41;101025.81;;;20.71;76.35
49461;BME280;35355;49.198;-0.368;2023-09-07T02:45:11;101022.53;;;20.69;76.09
49461;BME280;35355;49.198;-0.368;2023-09-07T02:47:38;101019.91;;;20.64;76.49
49461;BME280;35355;49.198;-0.368;2023-09-07T02:50:04;101016.16;;;20.60;76.24
49461;BME280;35355;49.198;-0.368;2023-09-07T02:52:29;101014.66;;;20.54;76.24
49461;BME280;35355;49.198;-0.368;2023-09-07T02:54:55;101002.91;;;20.48;76.27
49461;BME280;35355;49.198;-0.368;2023-09-07T02:57:20;100999.94;;;20.44;76.08
49461;BME280;35355;49.198;-0.368;2023-09-07T02:59:45;101011.34;;;20.43;76.12
49461;BME280;35355;49.198;-0.368;2023-09-07T03:02:11;101003.34;;;20.32;75.95
49461;BME280;35355;49.198;-0.368;2023-09-07T03:04:37;101003.19;;;20.29;76.19
49461;BME280;35355;49.198;-0.368;2023-09-07T03:07:03;101002.66;;;20.27;76.76
49461;BME280;35355;49.198;-0.368;2023-09-07T03:09:29;101011.34;;;20.34;76.52
49461;BME280;35355;49.198;-0.368;2023-09-07T03:11:54;101011.97;;;20.31;76.48
49461;BME280;35355;49.198;-0.368;2023-09-07T03:14:20;101010.38;;;20.30;76.49
49461;BME280;35355;49.198;-0.368;2023-09-07T03:16:45;101010.81;;;20.23;76.51
49461;BME280;35355;49.198;-0.368;2023-09-07T03:19:13;101016.03;;;20.25;76.58
49461;BME280;35355;49.198;-0.368;2023-09-07T03:21:39;101015.56;;;20.23;76.35
49461;BME280;35355;49.198;-0.368;2023-09-07T03:24:05;101006.25;;;20.19;76.62
49461;BME280;35355;49.198;-0.368;2023-09-07T03:26:31;101006.72;;;20.21;77.15
49461;BME280;35355;49.198;-0.368;2023-09-07T03:28:56;101010.00;;;20.23;76.93
49461;BME280;35355;49.198;-0.368;2023-09-07T03:31:23;101002.81;;;20.22;76.69
49461;BME280;35355;49.198;-0.368;2023-09-07T03:33:51;101005.09;;;20.20;76.54
49461;BME280;35355;49.198;-0.368;2023-09-07T03:36:16;101001.34;;;20.15;76.59
49461;BME280;35355;49.198;-0.368;2023-09-07T03:38:43;101003.28;;;20.15;76.56
49461;BME280;35355;49.198;-0.368;2023-09-07T03:41:08;100997.88;;;20.10;76.75
49461;BME280;35355;49.198;-0.368;2023-09-07T03:43:34;100999.22;;;20.12;76.98
49461;BME280;35355;49.198;-0.368;2023-09-07T03:46:00;101000.19;;;20.08;77.11
49461;BME280;35355;49.198;-0.368;2023-09-07T03:48:25;101000.81;;;20.13;76.79
49461;BME280;35355;49.198;-0.368;2023-09-07T03:50:50;101009.66;;;20.15;77.23
49461;BME280;35355;49.198;-0.368;2023-09-07T03:53:16;101009.66;;;20.15;76.97
49461;BME280;35355;49.198;-0.368;2023-09-07T03:55:42;101004.75;;;20.12;76.73
49461;BME280;35355;49.198;-0.368;2023-09-07T03:58:11;101010.09;;;20.09;76.64
49461;BME280;35355;49.198;-0.368;2023-09-07T04:00:44;101017.94;;;20.07;76.37
49461;BME280;35355;49.198;-0.368;2023-09-07T04:03:10;101012.19;;;20.03;76.79
49461;BME280;35355;49.198;-0.368;2023-09-07T04:05:39;101013.34;;;20.02;76.61
49461;BME280;35355;49.198;-0.368;2023-09-07T04:08:05;101015.28;;;20.02;76.63
49461;BME280;35355;49.198;-0.368;2023-09-07T04:10:31;101010.69;;;19.97;76.67
49461;BME280;35355;49.198;-0.368;2023-09-07T04:12:56;101011.84;;;19.96;76.68
49461;BME280;35355;49.198;-0.368;2023-09-07T04:15:22;101015.25;;;19.93;76.44
49461;BME280;35355;49.198;-0.368;2023-09-07T04:17:50;101014.75;;;19.91;76.47
49461;BME280;35355;49.198;-0.368;2023-09-07T04:20:15;101006.75;;;19.89;76.80
49461;BME280;35355;49.198;-0.368;2023-09-07T04:22:40;100996.66;;;19.85;76.71
49461;BME280;35355;49.198;-0.368;2023-09-07T04:25:06;101003.00;;;19.85;76.61
49461;BME280;35355;49.198;-0.368;2023-09-07T04:27:32;101002.81;;;19.82;76.12
49461;BME280;35355;49.198;-0.368;2023-09-07T04:29:58;101003.47;;;19.78;76.41
49461;BME280;35355;49.198;-0.368;2023-09-07T04:32:23;101005.38;;;19.78;76.81
49461;BME280;35355;49.198;-0.368;2023-09-07T04:34:55;100998.53;;;19.75;76.57
49461;BME280;35355;49.198;-0.368;2023-09-07T04:37:22;100998.84;;;19.74;76.98
49461;BME280;35355;49.198;-0.368;2023-09-07T04:39:51;100995.75;;;19.75;76.94
49461;BME280;35355;49.198;-0.368;2023-09-07T04:42:18;100995.75;;;19.75;76.93
49461;BME280;35355;49.198;-0.368;2023-09-07T04:44:44;100995.75;;;19.75;76.62
49461;BME280;35355;49.198;-0.368;2023-09-07T04:47:09;100983.31;;;19.64;76.48
49461;BME280;35355;49.198;-0.368;2023-09-07T04:49:35;100988.22;;;19.67;76.54
49461;BME280;35355;49.198;-0.368;2023-09-07T04:52:00;100992.63;;;19.68;76.57
49461;BME280;35355;49.198;-0.368;2023-09-07T04:54:26;100992.41;;;19.64;76.57
49461;BME280;35355;49.198;-0.368;2023-09-07T04:56:51;100994.38;;;19.64;76.79
49461;BME280;35355;49.198;-0.368;2023-09-07T04:59:17;100994.88;;;19.66;76.73
49461;BME280;35355;49.198;-0.368;2023-09-07T05:01:42;100997.31;;;19.68;76.84
49461;BME280;35355;49.198;-0.368;2023-09-07T05:04:08;100996.19;;;19.69;76.88
49461;BME280;35355;49.198;-0.368;2023-09-07T05:06:33;100997.00;;;19.69;76.86
49461;BME280;35355;49.198;-0.368;2023-09-07T05:09:03;101007.44;;;19.72;77.18
49461;BME280;35355;49.198;-0.368;2023-09-07T05:11:28;101008.44;;;19.76;77.33
49461;BME280;35355;49.198;-0.368;2023-09-07T05:13:53;101011.78;;;19.78;77.03
49461;BME280;35355;49.198;-0.368;2023-09-07T05:16:19;101014.22;;;19.80;77.19
49461;BME280;35355;49.198;-0.368;2023-09-07T05:18:44;101008.84;;;19.84;77.57
49461;BME280;35355;49.198;-0.368;2023-09-07T05:21:16;101012.31;;;19.89;77.53
49461;BME280;35355;49.198;-0.368;2023-09-07T05:23:41;101017.88;;;19.98;77.89
49461;BME280;35355;49.198;-0.368;2023-09-07T05:26:07;101017.25;;;20.01;77.86
49461;BME280;35355;49.198;-0.368;2023-09-07T05:28:32;101014.84;;;20.08;77.61
49461;BME280;35355;49.198;-0.368;2023-09-07T05:30:58;101013.56;;;20.14;78.13
49461;BME280;35355;49.198;-0.368;2023-09-07T05:33:23;101012.25;;;20.21;78.05
49461;BME280;35355;49.198;-0.368;2023-09-07T05:35:49;101019.63;;;20.25;78.36
49461;BME280;35355;49.198;-0.368;2023-09-07T05:38:14;101017.34;;;20.27;78.21
49461;BME280;35355;49.198;-0.368;2023-09-07T05:40:44;101017.72;;;20.35;78.07
49461;BME280;35355;49.198;-0.368;2023-09-07T05:43:10;101016.22;;;20.37;78.19
49461;BME280;35355;49.198;-0.368;2023-09-07T05:45:41;101020.97;;;20.37;77.67
49461;BME280;35355;49.198;-0.368;2023-09-07T05:48:07;101022.41;;;20.34;77.66
49461;BME280;35355;49.198;-0.368;2023-09-07T05:50:37;101013.13;;;20.30;77.41
49461;BME280;35355;49.198;-0.368;2023-09-07T05:53:03;101014.25;;;20.29;77.59
49461;BME280;35355;49.198;-0.368;2023-09-07T05:55:29;101017.03;;;20.29;77.59
49461;BME280;35355;49.198;-0.368;2023-09-07T05:57:56;101013.75;;;20.27;77.74
49461;BME280;35355;49.198;-0.368;2023-09-07T06:00:22;101018.69;;;20.30;77.38
49461;BME280;35355;49.198;-0.368;2023-09-07T06:02:49;101016.38;;;20.32;77.52
49461;BME280;35355;49.198;-0.368;2023-09-07T06:05:14;101022.41;;;20.34;77.21
49461;BME280;35355;49.198;-0.368;2023-09-07T06:07:40;101014.94;;;20.35;77.24
49461;BME280;35355;49.198;-0.368;2023-09-07T06:10:06;101013.47;;;20.37;77.27
49461;BME280;35355;49.198;-0.368;2023-09-07T06:12:32;101010.69;;;20.37;77.10
49461;BME280;35355;49.198;-0.368;2023-09-07T06:14:59;101012.31;;;20.38;77.27
49461;BME280;35355;49.198;-0.368;2023-09-07T06:17:25;101013.47;;;20.37;77.31
49461;BME280;35355;49.198;-0.368;2023-09-07T06:19:51;101016.22;;;20.37;77.14
49461;BME280;35355;49.198;-0.368;2023-09-07T06:22:16;101015.59;;;20.40;77.39
49461;BME280;35355;49.198;-0.368;2023-09-07T06:24:41;101012.53;;;20.42;77.52
49461;BME280;35355;49.198;-0.368;2023-09-07T06:27:07;101014.13;;;20.43;77.34
49461;BME280;35355;49.198;-0.368;2023-09-07T06:29:32;101019.69;;;20.43;77.33
49461;BME280;35355;49.198;-0.368;2023-09-07T06:31:58;101019.88;;;20.46;77.44
49461;BME280;35355;49.198;-0.368;2023-09-07T06:34:23;101019.22;;;20.49;77.60
49461;BME280;35355;49.198;-0.368;2023-09-07T06:36:49;101016.13;;;20.51;77.38
49461;BME280;35355;49.198;-0.368;2023-09-07T06:39:15;101021.81;;;20.55;77.36
49461;BME280;35355;49.198;-0.368;2023-09-07T06:41:40;101021.19;;;20.58;77.21
49461;BME280;35355;49.198;-0.368;2023-09-07T06:44:05;101023.31;;;20.61;77.28
49461;BME280;35355;49.198;-0.368;2023-09-07T06:46:31;101014.97;;;20.61;77.21
49461;BME280;35355;49.198;-0.368;2023-09-07T06:48:56;101016.81;;;20.65;77.28
49461;BME280;35355;49.198;-0.368;2023-09-07T06:51:22;101015.34;;;20.68;77.35
49461;BME280;35355;49.198;-0.368;2023-09-07T06:53:48;101018.31;;;20.72;77.45
49461;BME280;35355;49.198;-0.368;2023-09-07T06:56:15;101012.59;;;20.77;77.46
49461;BME280;35355;49.198;-0.368;2023-09-07T06:58:41;101012.78;;;20.80;77.45
49461;BME280;35355;49.198;-0.368;2023-09-07T07:01:06;101016.22;;;20.86;77.03
49461;BME280;35355;49.198;-0.368;2023-09-07T07:03:32;101025.50;;;20.90;77.10
49461;BME280;35355;49.198;-0.368;2023-09-07T07:05:59;101020.63;;;20.96;77.23
49461;BME280;35355;49.198;-0.368;2023-09-07T07:08:24;101022.09;;;21.02;76.85
49461;BME280;35355;49.198;-0.368;2023-09-07T07:10:49;101025.53;;;21.08;77.21
49461;BME280;35355;49.198;-0.368;2023-09-07T07:13:15;101025.69;;;21.11;76.73
49461;BME280;35355;49.198;-0.368;2023-09-07T07:15:41;101018.19;;;21.20;76.94
49461;BME280;35355;49.198;-0.368;2023-09-07T07:18:06;101018.00;;;21.26;76.43
49461;BME280;35355;49.198;-0.368;2023-09-07T07:20:42;101017.66;;;21.36;76.33
49461;BME280;35355;49.198;-0.368;2023-09-07T07:23:09;101013.09;;;21.40;76.04
49461;BME280;35355;49.198;-0.368;2023-09-07T07:25:34;101019.78;;;21.48;76.24
49461;BME280;35355;49.198;-0.368;2023-09-07T07:28:01;101009.66;;;21.52;75.66
49461;BME280;35355;49.198;-0.368;2023-09-07T07:30:28;101019.63;;;21.62;76.15
49461;BME280;35355;49.198;-0.368;2023-09-07T07:32:57;101027.09;;;21.70;75.83
49461;BME280;35355;49.198;-0.368;2023-09-07T07:35:23;101017.94;;;21.78;75.89
49461;BME280;35355;49.198;-0.368;2023-09-07T07:37:49;101017.09;;;21.86;75.31
49461;BME280;35355;49.198;-0.368;2023-09-07T07:40:16;101022.63;;;21.95;75.69
49461;BME280;35355;49.198;-0.368;2023-09-07T07:42:43;101023.75;;;22.03;75.56
49461;BME280;35355;49.198;-0.368;2023-09-07T07:45:09;101017.66;;;22.10;75.05
49461;BME280;35355;49.198;-0.368;2023-09-07T07:47:34;101020.91;;;22.20;74.94
49461;BME280;35355;49.198;-0.368;2023-09-07T07:49:59;101026.91;;;22.31;75.18
49461;BME280;35355;49.198;-0.368;2023-09-07T07:52:25;101026.88;;;22.40;75.13
49461;BME280;35355;49.198;-0.368;2023-09-07T07:54:53;101025.69;;;22.50;74.99
49461;BME280;35355;49.198;-0.368;2023-09-07T07:57:18;101026.25;;;22.64;74.71
49461;BME280;35355;49.198;-0.368;2023-09-07T07:59:44;101014.78;;;22.66;74.45
49461;BME280;35355;49.198;-0.368;2023-09-07T08:02:09;101023.69;;;22.80;74.01
49461;BME280;35355;49.198;-0.368;2023-09-07T08:04:35;101023.28;;;22.90;73.66
49461;BME280;35355;49.198;-0.368;2023-09-07T08:07:01;101030.28;;;22.97;73.58
49461;BME280;35355;49.198;-0.368;2023-09-07T08:09:30;101026.63;;;23.05;73.22
49461;BME280;35355;49.198;-0.368;2023-09-07T08:11:56;101021.03;;;23.14;73.24
49461;BME280;35355;49.198;-0.368;2023-09-07T08:14:24;101025.22;;;23.20;72.99
49461;BME280;35355;49.198;-0.368;2023-09-07T08:16:49;101020.94;;;23.22;73.03
49461;BME280;35355;49.198;-0.368;2023-09-07T08:19:15;101028.66;;;23.38;72.81
49461;BME280;35355;49.198;-0.368;2023-09-07T08:21:41;101009.38;;;23.33;72.58
49461;BME280;35355;49.198;-0.368;2023-09-07T08:24:11;101026.75;;;23.51;72.11
49461;BME280;35355;49.198;-0.368;2023-09-07T08:26:36;101024.22;;;23.58;72.06
49461;BME280;35355;49.198;-0.368;2023-09-07T08:29:03;101017.13;;;23.60;71.93
49461;BME280;35355;49.198;-0.368;2023-09-07T08:31:34;101027.22;;;23.65;71.94
49461;BME280;35355;49.198;-0.368;2023-09-07T08:34:00;101034.34;;;23.75;71.80
49461;BME280;35355;49.198;-0.368;2023-09-07T08:36:27;101032.03;;;23.77;71.23
49461;BME280;35355;49.198;-0.368;2023-09-07T08:38:54;101037.28;;;23.78;71.13
49461;BME280;35355;49.198;-0.368;2023-09-07T08:41:21;101036.25;;;23.83;71.37
49461;BME280;35355;49.198;-0.368;2023-09-07T08:43:46;101037.84;;;23.84;70.81
49461;BME280;35355;49.198;-0.368;2023-09-07T08:46:18;101030.00;;;23.86;71.20
49461;BME280;35355;49.198;-0.368;2023-09-07T08:48:47;101027.22;;;23.86;71.01
49461;BME280;35355;49.198;-0.368;2023-09-07T08:51:15;101033.38;;;23.92;70.48
49461;BME280;35355;49.198;-0.368;2023-09-07T08:53:41;101009.97;;;23.84;70.13
49461;BME280;35355;49.198;-0.368;2023-09-07T08:56:14;101017.47;;;23.92;70.23
49461;BME280;35355;49.198;-0.368;2023-09-07T08:58:40;101020.00;;;23.97;69.95
49461;BME280;35355;49.198;-0.368;2023-09-07T09:01:10;101007.13;;;23.93;69.37
49461;BME280;35355;49.198;-0.368;2023-09-07T09:03:36;101028.41;;;24.10;69.60
49461;BME280;35355;49.198;-0.368;2023-09-07T09:06:03;101010.28;;;24.04;69.28
49461;BME280;35355;49.198;-0.368;2023-09-07T09:08:44;101020.16;;;24.13;69.28
49461;BME280;35355;49.198;-0.368;2023-09-07T09:11:10;101025.63;;;24.22;68.86
49461;BME280;35355;49.198;-0.368;2023-09-07T09:13:36;101018.09;;;24.23;68.31
49461;BME280;35355;49.198;-0.368;2023-09-07T09:16:01;101024.22;;;24.28;67.97
49461;BME280;35355;49.198;-0.368;2023-09-07T09:18:27;101024.81;;;24.34;67.49
49461;BME280;35355;49.198;-0.368;2023-09-07T09:20:56;101028.53;;;24.38;67.57
49461;BME280;35355;49.198;-0.368;2023-09-07T09:23:24;101023.06;;;24.42;66.87
49461;BME280;35355;49.198;-0.368;2023-09-07T09:25:50;101030.41;;;24.46;67.16
49461;BME280;35355;49.198;-0.368;2023-09-07T09:28:16;101029.69;;;24.49;67.07
49461;BME280;35355;49.198;-0.368;2023-09-07T09:30:42;101019.34;;;24.50;66.96
49461;BME280;35355;49.198;-0.368;2023-09-07T09:33:10;101018.75;;;24.57;66.72
49461;BME280;35355;49.198;-0.368;2023-09-07T09:35:37;101010.88;;;24.59;66.64
49461;BME280;35355;49.198;-0.368;2023-09-07T09:38:06;101010.97;;;24.62;66.51
49461;BME280;35355;49.198;-0.368;2023-09-07T09:40:33;101009.09;;;24.66;66.53
49461;BME280;35355;49.198;-0.368;2023-09-07T09:43:02;101009.91;;;24.67;66.26
49461;BME280;35355;49.198;-0.368;2023-09-07T09:45:34;101017.72;;;24.74;66.34
49461;BME280;35355;49.198;-0.368;2023-09-07T09:48:01;101009.78;;;24.76;66.08
49461;BME280;35355;49.198;-0.368;2023-09-07T09:50:28;101003.03;;;24.77;66.16
49461;BME280;35355;49.198;-0.368;2023-09-07T09:52:54;101011.63;;;24.84;66.03
49461;BME280;35355;49.198;-0.368;2023-09-07T09:55:20;101009.28;;;24.86;65.77
49461;BME280;35355;49.198;-0.368;2023-09-07T09:57:47;101012.22;;;24.90;65.65
49461;BME280;35355;49.198;-0.368;2023-09-07T10:00:12;101007.91;;;24.92;65.25
49461;BME280;35355;49.198;-0.368;2023-09-07T10:02:55;101008.00;;;24.96;65.88
49461;BME280;35355;49.198;-0.368;2023-09-07T10:05:24;101013.34;;;25.01;65.18
49461;BME280;35355;49.198;-0.368;2023-09-07T10:07:51;101007.84;;;25.04;65.15
49461;BME280;35355;49.198;-0.368;2023-09-07T10:10:18;101010.66;;;25.04;64.88
49461;BME280;35355;49.198;-0.368;2023-09-07T10:12:46;101012.72;;;25.08;64.96
49461;BME280;35355;49.198;-0.368;2023-09-07T10:15:26;101010.88;;;25.12;65.13
49461;BME280;35355;49.198;-0.368;2023-09-07T10:18:17;101010.88;;;25.12;65.40
49461;BME280;35355;49.198;-0.368;2023-09-07T10:20:59;101013.38;;;25.17;65.01
49461;BME280;35355;49.198;-0.368;2023-09-07T10:23:43;101012.59;;;25.16;65.50
49461;BME280;35355;49.198;-0.368;2023-09-07T10:26:17;101008.72;;;25.21;64.99
49461;BME280;35355;49.198;-0.368;2023-09-07T10:28:43;101001.66;;;25.11;64.94
49461;BME280;35355;49.198;-0.368;2023-09-07T10:31:13;101005.22;;;25.24;65.14
49461;BME280;35355;49.198;-0.368;2023-09-07T10:33:39;100996.13;;;25.27;64.67
49461;BME280;35355;49.198;-0.368;2023-09-07T10:36:05;101004.97;;;25.29;64.44
49461;BME280;35355;49.198;-0.368;2023-09-07T10:38:35;100998.22;;;25.30;64.34
49461;BME280;35355;49.198;-0.368;2023-09-07T10:41:03;100992.41;;;25.35;64.06
49461;BME280;35355;49.198;-0.368;2023-09-07T10:43:33;100992.03;;;25.37;64.08
49461;BME280;35355;49.198;-0.368;2023-09-07T10:46:00;100984.00;;;25.35;63.79
49461;BME280;35355;49.198;-0.368;2023-09-07T10:48:28;100988.53;;;25.40;63.61
49461;BME280;35355;49.198;-0.368;2023-09-07T10:50:55;100974.47;;;25.36;63.28
49461;BME280;35355;49.198;-0.368;2023-09-07T10:53:29;100961.19;;;25.33;63.25
49461;BME280;35355;49.198;-0.368;2023-09-07T10:56:05;100983.13;;;25.47;63.55
49461;BME280;35355;49.198;-0.368;2023-09-07T11:00:57;100980.06;;;25.52;62.33
49461;BME280;35355;49.198;-0.368;2023-09-07T11:03:27;100971.25;;;25.50;62.59
49461;BME280;35355;49.198;-0.368;2023-09-07T11:05:59;100982.50;;;25.54;62.19
49461;BME280;35355;49.198;-0.368;2023-09-07T11:08:25;100950.56;;;25.39;62.02
49461;BME280;35355;49.198;-0.368;2023-09-07T11:10:51;100974.94;;;25.54;60.98
49461;BME280;35355;49.198;-0.368;2023-09-07T11:13:18;100965.66;;;25.50;61.14
49461;BME280;35355;49.198;-0.368;2023-09-07T11:15:43;100980.53;;;25.54;61.23
49461;BME280;35355;49.198;-0.368;2023-09-07T11:18:09;100980.19;;;25.56;61.14
49461;BME280;35355;49.198;-0.368;2023-09-07T11:20:36;100969.00;;;25.56;60.96
49461;BME280;35355;49.198;-0.368;2023-09-07T11:23:02;100974.13;;;25.54;60.60
49461;BME280;35355;49.198;-0.368;2023-09-07T11:25:35;100963.50;;;25.60;61.19
49461;BME280;35355;49.198;-0.368;2023-09-07T11:28:02;100963.84;;;25.58;63.76
49461;BME280;35355;49.198;-0.368;2023-09-07T11:30:27;100961.88;;;25.59;60.70
49461;BME280;35355;49.198;-0.368;2023-09-07T11:33:00;100955.47;;;25.58;61.00
49461;BME280;35355;49.198;-0.368;2023-09-07T11:35:26;100944.47;;;25.49;60.00
49461;BME280;35355;49.198;-0.368;2023-09-07T11:37:52;100951.50;;;25.59;60.08
49461;BME280;35355;49.198;-0.368;2023-09-07T11:40:17;100947.56;;;25.60;59.84
49461;BME280;35355;49.198;-0.368;2023-09-07T11:42:43;100931.84;;;25.55;60.05
49461;BME280;35355;49.198;-0.368;2023-09-07T11:45:12;100935.53;;;25.60;59.63
49461;BME280;35355;49.198;-0.368;2023-09-07T11:47:41;100927.16;;;25.60;59.46
49461;BME280;35355;49.198;-0.368;2023-09-07T11:50:09;100934.00;;;25.62;59.01
49461;BME280;35355;49.198;-0.368;2023-09-07T11:52:35;100929.59;;;25.61;58.24
49461;BME280;35355;49.198;-0.368;2023-09-07T11:55:02;100937.25;;;25.64;57.92
49461;BME280;35355;49.198;-0.368;2023-09-07T11:57:29;100926.78;;;25.61;58.03
49461;BME280;35355;49.198;-0.368;2023-09-07T11:59:55;100931.28;;;25.66;57.34
49461;BME280;35355;49.198;-0.368;2023-09-07T12:02:21;100932.94;;;25.67;57.52
49461;BME280;35355;49.198;-0.368;2023-09-07T12:04:47;100932.69;;;25.72;57.04
49461;BME280;35355;49.198;-0.368;2023-09-07T12:07:16;100923.19;;;25.77;57.01
49461;BME280;35355;49.198;-0.368;2023-09-07T12:09:41;100916.41;;;25.78;57.09
49461;BME280;35355;49.198;-0.368;2023-09-07T12:12:07;100921.22;;;25.77;56.92
49461;BME280;35355;49.198;-0.368;2023-09-07T12:14:32;100920.84;;;25.79;57.20
49461;BME280;35355;49.198;-0.368;2023-09-07T12:16:58;100912.38;;;25.75;56.96
49461;BME280;35355;49.198;-0.368;2023-09-07T12:19:23;100919.13;;;25.74;56.83
49461;BME280;35355;49.198;-0.368;2023-09-07T12:21:51;100926.00;;;25.77;56.82
49461;BME280;35355;49.198;-0.368;2023-09-07T12:24:16;100922.84;;;25.78;56.33
49461;BME280;35355;49.198;-0.368;2023-09-07T12:26:42;100920.13;;;25.82;56.20
49461;BME280;35355;49.198;-0.368;2023-09-07T12:29:07;100924.09;;;25.81;56.20
49461;BME280;35355;49.198;-0.368;2023-09-07T12:31:33;100917.69;;;25.80;56.04
49461;BME280;35355;49.198;-0.368;2023-09-07T12:33:58;100916.06;;;25.79;56.35
49461;BME280;35355;49.198;-0.368;2023-09-07T12:36:24;100917.31;;;25.82;56.37
49461;BME280;35355;49.198;-0.368;2023-09-07T12:38:50;100914.53;;;25.82;56.37
49461;BME280;35355;49.198;-0.368;2023-09-07T12:41:15;100921.81;;;25.86;56.41
49461;BME280;35355;49.198;-0.368;2023-09-07T12:43:41;100929.84;;;25.88;56.49